createdAt,value
2022-10-22T00:00:59.744Z,0.00
2022-10-22T00:02:00.324Z,0.00
2022-10-22T00:03:01.053Z,0.00
2022-10-22T00:04:01.719Z,0.00
2022-10-22T00:05:02.313Z,0.00
2022-10-22T00:06:02.924Z,0.00
2022-10-22T00:07:03.511Z,0.00
2022-10-22T00:08:04.144Z,0.00
2022-10-22T00:09:04.785Z,0.00
2022-10-22T00:10:05.411Z,0.00
2022-10-22T00:11:05.991Z,0.00
2022-10-22T00:12:06.579Z,0.00
2022-10-22T00:13:07.221Z,0.00
2022-10-22T00:14:07.805Z,0.00
2022-10-22T00:15:08.386Z,0.00
2022-10-22T00:16:09.099Z,0.00
2022-10-22T00:17:11.542Z,0.00
2022-10-22T00:18:10.407Z,0.00
2022-10-22T00:19:11.014Z,0.00
2022-10-22T00:20:11.608Z,0.00
2022-10-22T00:21:12.198Z,0.00
2022-10-22T00:22:12.785Z,0.00
2022-10-22T00:23:13.499Z,0.00
2022-10-22T00:24:14.075Z,0.00
2022-10-22T00:25:14.668Z,0.00
2022-10-22T00:26:15.265Z,0.00
2022-10-22T00:27:15.858Z,0.00
2022-10-22T00:28:16.598Z,0.00
2022-10-22T00:29:17.189Z,0.00
2022-10-22T00:30:17.779Z,0.00
2022-10-22T00:31:18.377Z,0.00
2022-10-22T00:32:18.968Z,0.00
2022-10-22T00:33:19.606Z,0.00
2022-10-22T00:34:20.223Z,0.00
2022-10-22T00:35:20.810Z,0.00
2022-10-22T00:36:21.393Z,0.00
2022-10-22T00:37:21.980Z,0.00
2022-10-22T00:38:22.709Z,0.00
2022-10-22T00:39:23.293Z,0.00
2022-10-22T00:40:23.876Z,0.00
2022-10-22T00:41:24.456Z,0.00
2022-10-22T00:42:25.049Z,0.00
2022-10-22T00:43:25.762Z,0.00
2022-10-22T00:44:26.352Z,0.00
2022-10-22T00:45:26.931Z,0.00
2022-10-22T00:46:26.898Z,0.00
2022-10-22T00:47:28.500Z,0.00
2022-10-22T00:48:29.145Z,0.00
2022-10-22T00:49:29.766Z,0.00
2022-10-22T00:50:30.352Z,0.00
2022-10-22T00:51:30.943Z,0.00
2022-10-22T00:52:31.531Z,0.00
2022-10-22T00:53:32.258Z,0.00
2022-10-22T00:54:32.861Z,0.00
2022-10-22T00:55:33.470Z,0.00
2022-10-22T00:56:34.057Z,0.00
2022-10-22T00:57:34.649Z,0.00
2022-10-22T00:58:35.434Z,0.00
2022-10-22T00:59:36.025Z,0.00
2022-10-22T01:00:36.735Z,0.00
2022-10-22T01:01:37.374Z,0.00
2022-10-22T01:02:38.564Z,0.00
2022-10-22T01:03:38.946Z,0.00
2022-10-22T01:04:39.559Z,0.00
2022-10-22T01:05:40.141Z,0.00
2022-10-22T01:06:40.733Z,0.00
2022-10-22T01:07:41.324Z,0.00
2022-10-22T01:08:42.036Z,0.00
2022-10-22T01:09:42.652Z,0.00
2022-10-22T01:10:43.258Z,0.00
2022-10-22T01:11:43.848Z,0.00
2022-10-22T01:12:44.438Z,0.00
2022-10-22T01:13:45.146Z,0.00
2022-10-22T01:14:45.727Z,0.00
2022-10-22T01:15:46.312Z,0.00
2022-10-22T01:16:46.938Z,0.00
2022-10-22T01:17:47.523Z,0.00
2022-10-22T01:18:48.177Z,0.00
2022-10-22T01:19:48.787Z,0.00
2022-10-22T01:20:49.371Z,0.00
2022-10-22T01:21:49.967Z,0.00
2022-10-22T01:22:50.561Z,0.00
2022-10-22T01:23:51.302Z,0.00
2022-10-22T01:24:51.898Z,0.00
2022-10-22T01:25:52.492Z,0.00
2022-10-22T01:26:53.087Z,0.00
2022-10-22T01:27:53.689Z,0.00
2022-10-22T01:28:54.330Z,0.00
2022-10-22T01:29:54.868Z,0.00
2022-10-22T01:30:55.490Z,0.00
2022-10-22T01:31:56.079Z,0.00
2022-10-22T01:32:56.677Z,0.00
2022-10-22T01:33:57.315Z,0.00
2022-10-22T01:34:57.929Z,0.00
2022-10-22T01:35:58.509Z,0.00
2022-10-22T01:36:59.104Z,0.00
2022-10-22T01:37:59.688Z,0.00
2022-10-22T01:39:00.313Z,0.00
2022-10-22T01:40:00.904Z,0.00
2022-10-22T01:41:01.482Z,0.00
2022-10-22T01:42:02.069Z,0.00
2022-10-22T01:43:02.658Z,0.00
2022-10-22T01:44:03.278Z,0.00
2022-10-22T01:45:03.864Z,0.00
2022-10-22T01:46:04.448Z,0.00
2022-10-22T01:47:05.034Z,0.00
2022-10-22T01:48:05.623Z,0.00
2022-10-22T01:49:06.250Z,0.00
2022-10-22T01:50:06.864Z,0.00
2022-10-22T01:51:07.450Z,0.00
2022-10-22T01:52:08.041Z,0.00
2022-10-22T01:53:08.632Z,0.00
2022-10-22T01:54:10.156Z,0.00
2022-10-22T01:55:09.758Z,0.00
2022-10-22T01:56:10.348Z,0.00
2022-10-22T01:57:10.940Z,0.00
2022-10-22T01:58:11.523Z,0.00
2022-10-22T01:59:12.168Z,0.00
2022-10-22T02:00:12.750Z,0.00
2022-10-22T02:01:13.414Z,0.00
2022-10-22T02:02:14.081Z,0.00
2022-10-22T02:03:16.544Z,0.00
2022-10-22T02:04:15.421Z,0.00
2022-10-22T02:05:16.029Z,0.00
2022-10-22T02:06:16.627Z,0.00
2022-10-22T02:07:17.220Z,0.00
2022-10-22T02:08:17.806Z,0.00
2022-10-22T02:09:18.617Z,0.00
2022-10-22T02:10:19.251Z,0.00
2022-10-22T02:11:19.833Z,0.00
2022-10-22T02:12:20.437Z,0.00
2022-10-22T02:13:21.112Z,0.00
2022-10-22T02:14:21.982Z,0.00
2022-10-22T02:15:22.879Z,0.00
2022-10-22T02:16:23.783Z,0.00
2022-10-22T02:17:24.362Z,0.00
2022-10-22T02:18:24.945Z,0.00
2022-10-22T02:19:25.633Z,0.00
2022-10-22T02:20:26.244Z,0.00
2022-10-22T02:21:26.828Z,0.00
2022-10-22T02:22:27.417Z,0.00
2022-10-22T02:23:27.999Z,0.00
2022-10-22T02:24:28.772Z,0.00
2022-10-22T02:25:29.365Z,0.00
2022-10-22T02:26:29.951Z,0.00
2022-10-22T02:27:30.536Z,0.00
2022-10-22T02:28:31.113Z,0.00
2022-10-22T02:29:31.766Z,0.00
2022-10-22T02:30:32.353Z,0.00
2022-10-22T02:31:32.936Z,0.00
2022-10-22T02:32:33.525Z,0.00
2022-10-22T02:33:34.127Z,0.00
2022-10-22T02:34:34.765Z,0.00
2022-10-22T02:35:35.380Z,0.00
2022-10-22T02:36:35.970Z,0.00
2022-10-22T02:37:36.550Z,0.00
2022-10-22T02:38:37.135Z,0.00
2022-10-22T02:39:37.767Z,0.00
2022-10-22T02:40:38.350Z,0.00
2022-10-22T02:41:38.931Z,0.00
2022-10-22T02:42:39.758Z,0.00
2022-10-22T02:43:40.035Z,0.00
2022-10-22T02:44:40.694Z,0.00
2022-10-22T02:45:41.282Z,0.00
2022-10-22T02:46:41.869Z,0.00
2022-10-22T02:47:42.470Z,0.00
2022-10-22T02:48:43.054Z,0.00
2022-10-22T02:49:43.683Z,0.00
2022-10-22T02:50:44.290Z,0.00
2022-10-22T02:51:44.870Z,0.00
2022-10-22T02:52:45.450Z,0.00
2022-10-22T02:53:46.056Z,0.00
2022-10-22T02:54:46.760Z,0.00
2022-10-22T02:55:47.382Z,0.00
2022-10-22T02:56:48.058Z,0.00
2022-10-22T02:57:48.649Z,0.00
2022-10-22T02:58:49.235Z,0.00
2022-10-22T02:59:49.876Z,0.00
2022-10-22T03:00:50.485Z,0.00
2022-10-22T03:01:51.078Z,0.00
2022-10-22T03:02:51.667Z,0.00
2022-10-22T03:03:52.260Z,0.00
2022-10-22T03:04:52.903Z,0.00
2022-10-22T03:05:53.512Z,0.00
2022-10-22T03:06:54.099Z,0.00
2022-10-22T03:07:54.693Z,0.00
2022-10-22T03:08:55.347Z,0.00
2022-10-22T03:09:56.070Z,0.00
2022-10-22T03:10:56.662Z,0.00
2022-10-22T03:11:57.285Z,0.00
2022-10-22T03:12:57.870Z,0.00
2022-10-22T03:13:58.466Z,0.00
2022-10-22T03:14:59.095Z,0.00
2022-10-22T03:15:59.701Z,0.00
2022-10-22T03:17:00.298Z,0.00
2022-10-22T03:18:00.907Z,0.00
2022-10-22T03:19:01.494Z,0.00
2022-10-22T03:20:03.753Z,0.00
2022-10-22T03:21:02.856Z,0.00
2022-10-22T03:22:03.445Z,0.00
2022-10-22T03:23:04.031Z,0.00
2022-10-22T03:24:04.614Z,0.00
2022-10-22T03:25:05.938Z,0.00
2022-10-22T03:26:06.021Z,0.00
2022-10-22T03:27:06.603Z,0.00
2022-10-22T03:28:07.193Z,0.00
2022-10-22T03:29:07.786Z,0.00
2022-10-22T03:30:08.437Z,0.00
2022-10-22T03:31:09.026Z,0.00
2022-10-22T03:32:09.613Z,0.00
2022-10-22T03:33:10.198Z,0.00
2022-10-22T03:34:10.813Z,0.00
2022-10-22T03:35:11.490Z,0.00
2022-10-22T03:36:12.116Z,0.00
2022-10-22T03:37:12.695Z,0.00
2022-10-22T03:38:13.285Z,0.00
2022-10-22T03:39:13.875Z,0.00
2022-10-22T03:40:14.514Z,0.00
2022-10-22T03:41:15.093Z,0.00
2022-10-22T03:42:15.678Z,0.00
2022-10-22T03:43:16.255Z,0.00
2022-10-22T03:44:16.846Z,0.00
2022-10-22T03:45:17.556Z,0.00
2022-10-22T03:46:18.133Z,0.00
2022-10-22T03:47:18.720Z,0.00
2022-10-22T03:48:19.299Z,0.00
2022-10-22T03:49:19.887Z,0.00
2022-10-22T03:50:20.516Z,0.00
2022-10-22T03:51:21.125Z,0.00
2022-10-22T03:52:21.705Z,0.00
2022-10-22T03:53:22.288Z,0.00
2022-10-22T03:54:22.872Z,0.00
2022-10-22T03:55:23.534Z,0.00
2022-10-22T03:56:24.116Z,0.00
2022-10-22T03:57:24.713Z,0.00
2022-10-22T03:58:25.306Z,0.00
2022-10-22T03:59:25.895Z,0.00
2022-10-22T04:00:26.607Z,0.00
2022-10-22T04:01:27.323Z,0.00
2022-10-22T04:02:27.933Z,0.00
2022-10-22T04:03:28.514Z,0.00
2022-10-22T04:04:29.105Z,0.00
2022-10-22T04:05:29.738Z,0.00
2022-10-22T04:06:30.349Z,0.00
2022-10-22T04:07:30.935Z,0.00
2022-10-22T04:08:31.637Z,0.00
2022-10-22T04:09:32.272Z,0.00
2022-10-22T04:10:32.962Z,0.00
2022-10-22T04:11:33.500Z,0.00
2022-10-22T04:12:34.088Z,0.00
2022-10-22T04:13:34.696Z,0.00
2022-10-22T04:14:35.287Z,0.00
2022-10-22T04:15:36.029Z,0.00
2022-10-22T04:16:36.677Z,0.00
2022-10-22T04:17:37.406Z,0.00
2022-10-22T04:18:38.052Z,0.00
2022-10-22T04:19:38.580Z,0.00
2022-10-22T04:20:39.161Z,0.00
2022-10-22T04:21:39.718Z,0.00
2022-10-22T04:22:40.250Z,0.00
2022-10-22T04:23:40.784Z,0.00
2022-10-22T04:24:41.328Z,0.00
2022-10-22T04:25:42.156Z,0.00
2022-10-22T04:26:42.717Z,0.00
2022-10-22T04:27:43.539Z,0.00
2022-10-22T04:28:44.122Z,0.00
2022-10-22T04:29:44.673Z,0.00
2022-10-22T04:30:45.252Z,0.00
2022-10-22T04:31:45.789Z,0.00
2022-10-22T04:32:46.318Z,0.00
2022-10-22T04:33:46.855Z,0.00
2022-10-22T04:34:47.427Z,0.00
2022-10-22T04:35:48.011Z,0.00
2022-10-22T04:36:48.568Z,5.62
2022-10-22T04:37:49.099Z,5.62
2022-10-22T04:38:49.636Z,5.62
2022-10-22T04:39:50.165Z,5.62
2022-10-22T04:40:50.752Z,5.62
2022-10-22T04:41:51.288Z,5.62
2022-10-22T04:42:51.815Z,5.62
2022-10-22T04:43:52.341Z,5.62
2022-10-22T04:44:53.025Z,5.62
2022-10-22T04:45:53.665Z,11.25
2022-10-22T04:46:54.235Z,11.25
2022-10-22T04:47:54.761Z,11.25
2022-10-22T04:48:55.307Z,11.25
2022-10-22T04:49:55.842Z,16.88
2022-10-22T04:50:56.421Z,16.88
2022-10-22T04:51:56.982Z,16.88
2022-10-22T04:52:57.510Z,16.88
2022-10-22T04:53:58.046Z,22.50
2022-10-22T04:54:58.586Z,22.50
2022-10-22T04:55:59.293Z,22.50
2022-10-22T04:56:59.823Z,22.50
2022-10-22T04:58:00.356Z,22.50
2022-10-22T04:59:00.880Z,22.50
2022-10-22T05:00:01.418Z,22.50
2022-10-22T05:01:02.162Z,28.12
2022-10-22T05:02:02.694Z,28.12
2022-10-22T05:03:03.226Z,28.12
2022-10-22T05:04:03.755Z,33.75
2022-10-22T05:05:04.296Z,33.75
2022-10-22T05:06:04.942Z,39.38
2022-10-22T05:07:05.517Z,45.00
2022-10-22T05:08:06.061Z,45.00
2022-10-22T05:09:06.703Z,45.00
2022-10-22T05:10:07.275Z,45.00
2022-10-22T05:11:07.900Z,50.62
2022-10-22T05:12:08.442Z,50.62
2022-10-22T05:13:08.968Z,45.00
2022-10-22T05:14:09.501Z,45.00
2022-10-22T05:15:10.034Z,50.62
2022-10-22T05:16:10.639Z,45.00
2022-10-22T05:17:11.169Z,39.38
2022-10-22T05:18:11.706Z,45.00
2022-10-22T05:19:12.231Z,50.62
2022-10-22T05:20:12.759Z,50.62
2022-10-22T05:21:13.343Z,50.62
2022-10-22T05:22:13.911Z,45.00
2022-10-22T05:23:14.446Z,45.00
2022-10-22T05:24:14.981Z,39.38
2022-10-22T05:25:15.512Z,45.00
2022-10-22T05:26:16.206Z,56.25
2022-10-22T05:27:16.761Z,56.25
2022-10-22T05:28:17.287Z,56.25
2022-10-22T05:29:17.815Z,56.25
2022-10-22T05:30:18.348Z,67.50
2022-10-22T05:31:18.980Z,73.12
2022-10-22T05:32:19.511Z,78.75
2022-10-22T05:33:24.008Z,90.00
2022-10-22T05:34:20.763Z,95.62
2022-10-22T05:35:21.294Z,101.25
2022-10-22T05:36:21.891Z,112.50
2022-10-22T05:37:22.456Z,112.50
2022-10-22T05:38:22.986Z,106.88
2022-10-22T05:39:23.516Z,106.88
2022-10-22T05:40:30.619Z,106.88
2022-10-22T05:41:25.051Z,118.12
2022-10-22T05:42:25.577Z,129.38
2022-10-22T05:43:26.111Z,123.75
2022-10-22T05:44:26.661Z,129.38
2022-10-22T05:45:27.194Z,129.38
2022-10-22T05:46:27.784Z,135.00
2022-10-22T05:47:28.327Z,140.62
2022-10-22T05:48:28.891Z,146.25
2022-10-22T05:49:29.477Z,146.25
2022-10-22T05:50:30.003Z,146.25
2022-10-22T05:51:30.585Z,146.25
2022-10-22T05:52:31.156Z,135.00
2022-10-22T05:53:31.693Z,135.00
2022-10-22T05:54:32.225Z,123.75
2022-10-22T05:55:32.767Z,140.62
2022-10-22T05:56:33.405Z,168.75
2022-10-22T05:57:33.942Z,106.88
2022-10-22T05:58:34.486Z,196.88
2022-10-22T05:59:35.018Z,354.38
2022-10-22T06:00:35.543Z,405.00
2022-10-22T06:01:36.692Z,376.88
2022-10-22T06:02:36.721Z,140.62
2022-10-22T06:03:37.251Z,95.62
2022-10-22T06:04:37.780Z,95.62
2022-10-22T06:05:38.317Z,123.75
2022-10-22T06:06:38.886Z,95.62
2022-10-22T06:07:39.439Z,95.62
2022-10-22T06:08:40.005Z,106.88
2022-10-22T06:09:40.562Z,421.88
2022-10-22T06:10:41.095Z,129.38
2022-10-22T06:11:41.724Z,140.62
2022-10-22T06:12:42.558Z,427.50
2022-10-22T06:13:42.883Z,725.62
2022-10-22T06:14:43.411Z,770.62
2022-10-22T06:15:43.954Z,371.25
2022-10-22T06:16:44.538Z,506.25
2022-10-22T06:17:45.065Z,174.38
2022-10-22T06:18:45.608Z,151.88
2022-10-22T06:19:46.177Z,551.25
2022-10-22T06:20:46.706Z,793.12
2022-10-22T06:21:47.285Z,860.62
2022-10-22T06:22:47.843Z,922.50
2022-10-22T06:23:48.375Z,961.88
2022-10-22T06:24:48.912Z,1001.25
2022-10-22T06:25:49.444Z,1085.62
2022-10-22T06:26:50.072Z,1164.38
2022-10-22T06:27:50.605Z,1147.50
2022-10-22T06:28:51.138Z,1243.12
2022-10-22T06:29:51.674Z,1271.25
2022-10-22T06:30:52.218Z,933.75
2022-10-22T06:31:52.801Z,191.25
2022-10-22T06:32:53.336Z,174.38
2022-10-22T06:33:53.883Z,1040.62
2022-10-22T06:34:54.410Z,168.75
2022-10-22T06:35:54.953Z,1338.75
2022-10-22T06:36:55.532Z,945.00
2022-10-22T06:37:56.090Z,191.25
2022-10-22T06:38:56.629Z,1485.00
2022-10-22T06:39:57.163Z,157.50
2022-10-22T06:40:57.695Z,146.25
2022-10-22T06:41:58.293Z,163.12
2022-10-22T06:42:58.819Z,185.62
2022-10-22T06:43:59.370Z,1456.88
2022-10-22T06:44:59.905Z,1524.38
2022-10-22T06:46:00.433Z,1603.12
2022-10-22T06:47:01.016Z,1698.75
2022-10-22T06:48:01.555Z,1732.50
2022-10-22T06:49:02.153Z,1766.25
2022-10-22T06:50:02.686Z,1743.75
2022-10-22T06:51:03.246Z,1738.12
2022-10-22T06:52:03.829Z,1715.62
2022-10-22T06:53:04.385Z,1001.25
2022-10-22T06:54:04.920Z,1771.88
2022-10-22T06:55:05.456Z,1035.00
2022-10-22T06:56:05.993Z,1822.50
2022-10-22T06:57:06.643Z,1833.75
2022-10-22T06:58:07.180Z,1884.38
2022-10-22T06:59:07.720Z,1918.12
2022-10-22T07:00:08.258Z,1940.62
2022-10-22T07:01:08.899Z,1957.50
2022-10-22T07:02:09.621Z,1991.25
2022-10-22T07:03:10.155Z,2013.75
2022-10-22T07:04:10.687Z,1850.62
2022-10-22T07:05:11.213Z,517.50
2022-10-22T07:06:11.744Z,1642.50
2022-10-22T07:07:12.409Z,2103.75
2022-10-22T07:08:12.989Z,1186.88
2022-10-22T07:09:13.709Z,838.12
2022-10-22T07:10:14.261Z,281.25
2022-10-22T07:11:14.801Z,2171.25
2022-10-22T07:12:15.433Z,2261.25
2022-10-22T07:13:15.960Z,2390.62
2022-10-22T07:14:16.493Z,2469.38
2022-10-22T07:15:17.028Z,2441.25
2022-10-22T07:16:17.569Z,2430.00
2022-10-22T07:17:18.189Z,2480.62
2022-10-22T07:18:18.729Z,2491.88
2022-10-22T07:19:19.257Z,2486.25
2022-10-22T07:20:19.784Z,2615.62
2022-10-22T07:21:20.328Z,2615.62
2022-10-22T07:22:20.934Z,2548.12
2022-10-22T07:23:21.487Z,2536.88
2022-10-22T07:24:22.018Z,2503.12
2022-10-22T07:25:22.569Z,2531.25
2022-10-22T07:26:23.099Z,2598.75
2022-10-22T07:27:23.797Z,2565.00
2022-10-22T07:28:24.333Z,2520.00
2022-10-22T07:29:24.871Z,2525.62
2022-10-22T07:30:25.413Z,2536.88
2022-10-22T07:31:25.944Z,2514.38
2022-10-22T07:32:26.538Z,2536.88
2022-10-22T07:33:27.055Z,2604.38
2022-10-22T07:34:27.627Z,2688.75
2022-10-22T07:35:28.172Z,2598.75
2022-10-22T07:36:28.702Z,2520.00
2022-10-22T07:37:29.285Z,2520.00
2022-10-22T07:38:29.842Z,2570.62
2022-10-22T07:39:30.387Z,2649.38
2022-10-22T07:40:30.919Z,2677.50
2022-10-22T07:41:31.451Z,2711.25
2022-10-22T07:42:32.045Z,2688.75
2022-10-22T07:43:32.586Z,2750.62
2022-10-22T07:44:33.119Z,2728.12
2022-10-22T07:45:33.651Z,2728.12
2022-10-22T07:46:34.195Z,2840.62
2022-10-22T07:47:34.794Z,2885.62
2022-10-22T07:48:35.329Z,2863.12
2022-10-22T07:49:35.857Z,2863.12
2022-10-22T07:50:36.447Z,2778.75
2022-10-22T07:51:37.061Z,2801.25
2022-10-22T07:52:37.723Z,2874.38
2022-10-22T07:53:38.287Z,3003.75
2022-10-22T07:54:38.818Z,2970.00
2022-10-22T07:55:39.358Z,2975.62
2022-10-22T07:56:39.892Z,2941.88
2022-10-22T07:57:40.547Z,2925.00
2022-10-22T07:58:41.099Z,2812.50
2022-10-22T07:59:41.640Z,2728.12
2022-10-22T08:00:42.175Z,2559.38
2022-10-22T08:01:42.787Z,1912.50
2022-10-22T08:02:43.658Z,1209.38
2022-10-22T08:03:43.933Z,995.62
2022-10-22T08:04:44.534Z,928.12
2022-10-22T08:05:45.081Z,883.12
2022-10-22T08:06:47.283Z,838.12
2022-10-22T08:07:46.625Z,798.75
2022-10-22T08:08:47.353Z,765.00
2022-10-22T08:09:47.935Z,742.50
2022-10-22T08:10:48.475Z,725.62
2022-10-22T08:11:49.027Z,703.12
2022-10-22T08:12:49.657Z,686.25
2022-10-22T08:13:50.188Z,669.38
2022-10-22T08:14:50.865Z,652.50
2022-10-22T08:15:53.622Z,630.00
2022-10-22T08:16:52.277Z,607.50
2022-10-22T08:17:52.858Z,585.00
2022-10-22T08:18:53.413Z,568.12
2022-10-22T08:19:53.943Z,556.88
2022-10-22T08:20:54.476Z,540.00
2022-10-22T08:21:55.005Z,528.75
2022-10-22T08:22:55.608Z,517.50
2022-10-22T08:23:56.329Z,506.25
2022-10-22T08:24:56.959Z,495.00
2022-10-22T08:25:57.503Z,489.38
2022-10-22T08:26:58.038Z,483.75
2022-10-22T08:27:58.709Z,483.75
2022-10-22T08:28:59.254Z,472.50
2022-10-22T08:29:59.785Z,466.88
2022-10-22T08:31:00.311Z,461.25
2022-10-22T08:32:00.848Z,461.25
2022-10-22T08:33:01.422Z,433.12
2022-10-22T08:34:01.956Z,461.25
2022-10-22T08:35:02.484Z,461.25
2022-10-22T08:36:03.015Z,466.88
2022-10-22T08:37:03.548Z,461.25
2022-10-22T08:38:04.147Z,466.88
2022-10-22T08:39:04.697Z,461.25
2022-10-22T08:40:05.227Z,455.62
2022-10-22T08:41:05.764Z,455.62
2022-10-22T08:42:06.300Z,421.88
2022-10-22T08:43:06.921Z,433.12
2022-10-22T08:44:07.450Z,455.62
2022-10-22T08:45:07.979Z,455.62
2022-10-22T08:46:08.520Z,455.62
2022-10-22T08:47:09.062Z,461.25
2022-10-22T08:48:09.706Z,455.62
2022-10-22T08:49:10.277Z,455.62
2022-10-22T08:50:10.844Z,461.25
2022-10-22T08:51:11.377Z,478.12
2022-10-22T08:52:11.902Z,500.62
2022-10-22T08:53:12.478Z,517.50
2022-10-22T08:54:13.041Z,551.25
2022-10-22T08:55:13.597Z,573.75
2022-10-22T08:56:14.136Z,601.88
2022-10-22T08:57:14.669Z,669.38
2022-10-22T08:58:15.276Z,793.12
2022-10-22T08:59:15.812Z,995.62
2022-10-22T09:00:16.342Z,1254.38
2022-10-22T09:01:16.877Z,1501.88
2022-10-22T09:02:17.412Z,1653.75
2022-10-22T09:03:17.998Z,1732.50
2022-10-22T09:04:18.534Z,1788.75
2022-10-22T09:05:19.072Z,1839.38
2022-10-22T09:06:19.609Z,1884.38
2022-10-22T09:07:20.140Z,1918.12
2022-10-22T09:08:20.719Z,1951.88
2022-10-22T09:09:21.271Z,1985.62
2022-10-22T09:10:21.807Z,2019.38
2022-10-22T09:11:22.344Z,2047.50
2022-10-22T09:12:22.880Z,2109.38
2022-10-22T09:13:23.505Z,2103.75
2022-10-22T09:14:24.037Z,2148.75
2022-10-22T09:15:24.584Z,2148.75
2022-10-22T09:16:25.113Z,2171.25
2022-10-22T09:17:25.643Z,2205.00
2022-10-22T09:18:26.226Z,2216.25
2022-10-22T09:19:26.759Z,2227.50
2022-10-22T09:20:27.291Z,2238.75
2022-10-22T09:21:28.035Z,2261.25
2022-10-22T09:22:28.608Z,2261.25
2022-10-22T09:23:29.237Z,2278.12
2022-10-22T09:24:32.237Z,2283.75
2022-10-22T09:25:30.357Z,2283.75
2022-10-22T09:26:30.891Z,2295.00
2022-10-22T09:27:31.427Z,2300.62
2022-10-22T09:28:32.094Z,2317.50
2022-10-22T09:29:32.628Z,2323.12
2022-10-22T09:30:33.408Z,2340.00
2022-10-22T09:31:33.951Z,2351.25
2022-10-22T09:36:12.271Z,2390.62
2022-10-22T09:37:13.815Z,2390.62
2022-10-22T09:38:14.348Z,2401.88
2022-10-22T09:40:14.461Z,2396.25
2022-10-22T09:41:16.054Z,2373.75
2022-10-22T09:42:16.587Z,2373.75
2022-10-22T09:43:17.122Z,2379.38
2022-10-22T09:44:17.659Z,2379.38
2022-10-22T09:45:18.188Z,2385.00
2022-10-22T09:46:18.784Z,2396.25
2022-10-22T09:47:19.320Z,2407.50
2022-10-22T09:48:19.859Z,2407.50
2022-10-22T09:49:20.400Z,2407.50
2022-10-22T09:50:20.930Z,2413.12
2022-10-22T09:51:21.517Z,2413.12
2022-10-22T09:52:22.060Z,2396.25
2022-10-22T09:53:22.611Z,2390.62
2022-10-22T09:54:23.148Z,2390.62
2022-10-22T09:55:23.704Z,2373.75
2022-10-22T09:56:24.292Z,2373.75
2022-10-22T09:57:24.824Z,2390.62
2022-10-22T09:58:25.359Z,2401.88
2022-10-22T09:59:25.894Z,2407.50
2022-10-22T10:00:26.433Z,2413.12
2022-10-22T10:01:27.212Z,2407.50
2022-10-22T10:02:38.627Z,2401.88
2022-10-22T10:03:28.704Z,2396.25
2022-10-22T10:04:29.283Z,2407.50
2022-10-22T10:05:29.829Z,2407.50
2022-10-22T10:06:30.417Z,2401.88
2022-10-22T10:07:30.955Z,2390.62
2022-10-22T10:08:31.561Z,2390.62
2022-10-22T10:09:32.151Z,2390.62
2022-10-22T10:10:32.710Z,2385.00
2022-10-22T10:11:33.389Z,2385.00
2022-10-22T10:12:34.048Z,2385.00
2022-10-22T10:13:34.613Z,2390.62
2022-10-22T10:14:35.156Z,2390.62
2022-10-22T10:15:35.696Z,2396.25
2022-10-22T10:16:36.346Z,2401.88
2022-10-22T10:17:36.880Z,2396.25
2022-10-22T10:18:37.413Z,2385.00
2022-10-22T10:19:38.376Z,2390.62
2022-10-22T10:20:38.905Z,2390.62
2022-10-22T10:21:39.493Z,2379.38
2022-10-22T10:22:40.461Z,2373.75
2022-10-22T10:23:40.780Z,2373.75
2022-10-22T10:24:41.323Z,2368.12
2022-10-22T10:25:41.883Z,2368.12
2022-10-22T10:26:42.470Z,2368.12
2022-10-22T10:27:43.007Z,2373.75
2022-10-22T10:28:43.547Z,2379.38
2022-10-22T10:29:44.085Z,2379.38
2022-10-22T10:30:44.630Z,2368.12
2022-10-22T10:31:45.253Z,2368.12
2022-10-22T10:32:45.790Z,2379.38
2022-10-22T10:33:46.341Z,2373.75
2022-10-22T10:34:46.876Z,2379.38
2022-10-22T10:35:47.422Z,2362.50
2022-10-22T10:36:48.002Z,2373.75
2022-10-22T10:37:48.612Z,2351.25
2022-10-22T10:38:49.177Z,2345.62
2022-10-22T10:39:49.721Z,2351.25
2022-10-22T10:40:50.292Z,2351.25
2022-10-22T10:41:50.885Z,2345.62
2022-10-22T10:42:51.423Z,2356.88
2022-10-22T10:43:51.959Z,2362.50
2022-10-22T10:44:52.495Z,2351.25
2022-10-22T10:45:55.707Z,2356.88
2022-10-22T10:46:53.611Z,2356.88
2022-10-22T10:47:54.144Z,2356.88
2022-10-22T10:48:54.677Z,2340.00
2022-10-22T10:49:55.214Z,2340.00
2022-10-22T10:50:55.757Z,2340.00
2022-10-22T10:51:56.345Z,2340.00
2022-10-22T10:52:56.884Z,2345.62
2022-10-22T10:53:57.422Z,2345.62
2022-10-22T10:54:57.960Z,2340.00
2022-10-22T10:55:58.527Z,2356.88
2022-10-22T10:56:59.126Z,2345.62
2022-10-22T10:57:59.667Z,2334.38
2022-10-22T10:59:00.210Z,2328.75
2022-10-22T11:00:00.759Z,2323.12
2022-10-22T11:01:01.307Z,2323.12
2022-10-22T11:02:01.897Z,2317.50
2022-10-22T11:03:02.440Z,2334.38
2022-10-22T11:04:02.973Z,2317.50
2022-10-22T11:05:03.526Z,2328.75
2022-10-22T11:06:04.060Z,2317.50
2022-10-22T11:07:11.120Z,2317.50
2022-10-22T11:08:05.519Z,2334.38
2022-10-22T11:09:06.117Z,2323.12
2022-10-22T11:10:06.679Z,2306.25
2022-10-22T11:11:07.294Z,2311.88
2022-10-22T11:12:07.917Z,2300.62
2022-10-22T11:13:08.463Z,2289.38
2022-10-22T11:14:09.008Z,2289.38
2022-10-22T11:15:09.561Z,2283.75
2022-10-22T11:16:10.099Z,2289.38
2022-10-22T11:17:10.683Z,2289.38
2022-10-22T11:18:11.227Z,2283.75
2022-10-22T11:19:15.519Z,2278.12
2022-10-22T11:20:12.655Z,2278.12
2022-10-22T11:21:13.193Z,2278.12
2022-10-22T11:22:13.784Z,2272.50
2022-10-22T11:23:19.630Z,2272.50
2022-10-22T11:24:15.201Z,2261.25
2022-10-22T11:25:15.724Z,2272.50
2022-10-22T11:26:16.280Z,2266.88
2022-10-22T11:27:16.888Z,2250.00
2022-10-22T11:28:17.425Z,2244.38
2022-10-22T11:29:17.968Z,2244.38
2022-10-22T11:30:18.518Z,2238.75
2022-10-22T11:31:19.057Z,2238.75
2022-10-22T11:32:19.857Z,2227.50
2022-10-22T11:33:20.415Z,2221.88
2022-10-22T11:34:33.387Z,2221.88
2022-10-22T11:35:25.708Z,2199.38
2022-10-22T11:36:22.626Z,2193.75
2022-10-22T11:37:23.371Z,2182.50
2022-10-22T11:38:23.915Z,2182.50
2022-10-22T11:39:24.459Z,2176.88
2022-10-22T11:40:24.997Z,2171.25
2022-10-22T11:41:25.560Z,2154.38
2022-10-22T11:42:26.166Z,2148.75
2022-10-22T11:43:26.705Z,2143.12
2022-10-22T11:44:27.236Z,2126.25
2022-10-22T11:45:27.800Z,2126.25
2022-10-22T11:46:28.338Z,2120.62
2022-10-22T11:47:28.935Z,2115.00
2022-10-22T11:48:29.474Z,2092.50
2022-10-22T11:49:30.004Z,2081.25
2022-10-22T11:50:30.539Z,2075.62
2022-10-22T11:51:31.072Z,2070.00
2022-10-22T11:52:31.673Z,2058.75
2022-10-22T11:53:32.234Z,2036.25
2022-10-22T11:54:32.772Z,2030.62
2022-10-22T11:55:33.304Z,2025.00
2022-10-22T11:56:33.862Z,2036.25
2022-10-22T11:57:34.468Z,1985.62
2022-10-22T11:58:35.006Z,1974.38
2022-10-22T11:59:35.551Z,1968.75
2022-10-22T12:00:36.103Z,1935.00
2022-10-22T12:01:36.661Z,1918.12
2022-10-22T12:02:37.344Z,1901.25
2022-10-22T12:03:37.952Z,1895.62
2022-10-22T12:04:38.578Z,1878.75
2022-10-22T12:05:39.156Z,1878.75
2022-10-22T12:06:39.697Z,1850.62
2022-10-22T12:07:40.344Z,1839.38
2022-10-22T12:08:40.934Z,1833.75
2022-10-22T12:09:41.576Z,1800.00
2022-10-22T12:10:42.180Z,1788.75
2022-10-22T12:11:42.735Z,1777.50
2022-10-22T12:12:43.511Z,1771.88
2022-10-22T12:13:44.145Z,1755.00
2022-10-22T12:14:44.683Z,1738.12
2022-10-22T12:15:45.223Z,1726.88
2022-10-22T12:16:58.165Z,1715.62
2022-10-22T12:17:46.683Z,1698.75
2022-10-22T12:18:47.221Z,1687.50
2022-10-22T12:19:47.769Z,1665.00
2022-10-22T12:20:48.285Z,1648.12
2022-10-22T12:21:48.824Z,1636.88
2022-10-22T12:22:49.407Z,1625.62
2022-10-22T12:23:49.983Z,1620.00
2022-10-22T12:24:50.523Z,1625.62
2022-10-22T12:25:51.055Z,1603.12
2022-10-22T12:26:51.613Z,1591.88
2022-10-22T12:27:52.285Z,1591.88
2022-10-22T12:28:52.860Z,1591.88
2022-10-22T12:29:53.397Z,1586.25
2022-10-22T12:30:53.934Z,1575.00
2022-10-22T12:31:54.472Z,1580.62
2022-10-22T12:32:55.132Z,1580.62
2022-10-22T12:33:55.667Z,1580.62
2022-10-22T12:34:56.240Z,1580.62
2022-10-22T12:35:56.781Z,1575.00
2022-10-22T12:36:57.334Z,1575.00
2022-10-22T12:37:58.039Z,1580.62
2022-10-22T12:38:58.594Z,1580.62
2022-10-22T12:39:59.137Z,1580.62
2022-10-22T12:40:59.683Z,1586.25
2022-10-22T12:42:00.249Z,1586.25
2022-10-22T12:43:00.887Z,1586.25
2022-10-22T12:44:01.436Z,1586.25
2022-10-22T12:45:01.980Z,1586.25
2022-10-22T12:46:02.527Z,1580.62
2022-10-22T12:47:03.069Z,1591.88
2022-10-22T12:48:03.654Z,1586.25
2022-10-22T12:49:04.185Z,1586.25
2022-10-22T12:50:04.720Z,1575.00
2022-10-22T12:51:05.267Z,1575.00